Time;durP1;ratioP1;P1;durP2;ratioP2;P2;SDS_P1;SDS_P2;PMS_P1;PMS_P2;Temp;Humidity;BMP_temperature;BMP_pressure;BME280_temperature;BME280_humidity;BME280_pressure;Samples;Min_cycle;Max_cycle;Signal;HPM_P1;HPM_P2
2024/02/17 00:01:53;;;;;;;34.90;22.15;;;5.90;99.90;;;;;;4993824;28;20030;-53
2024/02/17 00:04:18;;;;;;;32.55;20.40;;;5.80;99.90;;;;;;4993777;28;20165;-55
2024/02/17 00:06:44;;;;;;;35.85;22.55;;;5.50;99.90;;;;;;4993882;28;20037;-54
2024/02/17 00:09:10;;;;;;;37.47;21.52;;;5.50;99.90;;;;;;4994133;28;20041;-51
2024/02/17 00:11:36;;;;;;;32.28;21.88;;;5.70;99.90;;;;;;4975835;28;20117;-53
2024/02/17 00:14:01;;;;;;;30.88;19.30;;;5.60;99.90;;;;;;4972256;28;20138;-52
2024/02/17 00:16:27;;;;;;;28.75;21.45;;;5.40;99.90;;;;;;4972479;28;20043;-49
2024/02/17 00:18:53;;;;;;;32.42;21.70;;;5.30;99.90;;;;;;4940285;28;20098;-55
2024/02/17 00:21:19;;;;;;;29.50;20.88;;;5.20;99.90;;;;;;4972340;28;20034;-56
2024/02/17 00:23:44;;;;;;;32.15;21.92;;;5.10;99.90;;;;;;4908165;28;20142;-54
2024/02/17 00:26:10;;;;;;;31.88;21.33;;;4.80;99.90;;;;;;4893026;28;20117;-55
2024/02/17 00:28:36;;;;;;;32.13;20.80;;;4.80;99.90;;;;;;4908686;28;20047;-57
2024/02/17 00:31:02;;;;;;;32.22;22.30;;;4.70;99.90;;;;;;4956081;28;20039;-55
2024/02/17 00:33:28;;;;;;;33.80;21.75;;;4.80;99.90;;;;;;4972119;28;20038;-55
2024/02/17 00:35:53;;;;;;;32.67;22.08;;;4.90;99.90;;;;;;4956057;28;20047;-52
2024/02/17 00:38:19;;;;;;;33.20;20.73;;;5.00;99.90;;;;;;4972113;28;20047;-56
2024/02/17 00:40:46;;;;;;;30.98;20.23;;;5.10;99.90;;;;;;4940045;28;20116;-56
2024/02/17 00:43:12;;;;;;;32.92;20.73;;;5.10;99.90;;;;;;4957712;28;20043;-52
2024/02/17 00:45:37;;;;;;;29.90;20.70;;;5.10;99.90;;;;;;4950603;28;20092;-51
2024/02/17 00:48:04;;;;;;;30.95;21.50;;;;;;;;;;4978189;28;20031;-53
2024/02/17 00:50:30;;;;;;;27.17;19.45;;;5.30;99.90;;;;;;4960059;28;20089;-54
2024/02/17 00:52:56;;;;;;;27.17;19.35;;;;;;;;;;4977791;28;20031;-50
2024/02/17 00:55:22;;;;;;;28.70;18.70;;;;;;;;;;4956581;29;20059;-50
2024/02/17 00:57:48;;;;;;;29.67;19.08;;;5.40;99.90;;;;;;4958588;28;20063;-51
2024/02/17 01:00:14;;;;;;;29.00;19.40;;;5.40;99.90;;;;;;4958551;28;20134;-51
2024/02/17 01:02:40;;;;;;;28.50;17.40;;;5.50;99.90;;;;;;4958425;28;20029;-52
2024/02/17 01:05:06;;;;;;;27.80;18.02;;;;;;;;;;4958333;28;20383;-55
2024/02/17 01:07:31;;;;;;;24.88;17.85;;;5.20;99.90;;;;;;4958497;28;20379;-50
2024/02/17 01:09:57;;;;;;;27.83;17.52;;;5.00;99.90;;;;;;4958210;28;20036;-49
2024/02/17 01:12:24;;;;;;;27.92;17.92;;;4.70;99.90;;;;;;4958545;28;20034;-55
2024/02/17 01:14:50;;;;;;;25.55;18.30;;;4.60;99.90;;;;;;4962395;28;20027;-52
2024/02/17 01:17:16;;;;;;;23.67;17.95;;;4.50;99.90;;;;;;4977572;28;20118;-54
2024/02/17 01:19:42;;;;;;;28.90;18.33;;;4.70;99.90;;;;;;4977403;28;20027;-53
2024/02/17 01:22:08;;;;;;;26.58;19.15;;;4.80;99.90;;;;;;4959442;28;20049;-57
2024/02/17 01:24:34;;;;;;;26.38;18.85;;;5.00;99.90;;;;;;4959247;28;20043;-54
2024/02/17 01:27:00;;;;;;;29.83;19.83;;;4.90;99.90;;;;;;4977503;28;20113;-55
2024/02/17 01:29:25;;;;;;;28.65;18.75;;;4.70;99.90;;;;;;4959307;28;20046;-52
2024/02/17 01:31:53;;;;;;;33.55;20.65;;;4.30;99.90;;;;;;4977080;28;20114;-54
2024/02/17 01:34:20;;;;;;;33.55;21.48;;;4.30;99.90;;;;;;4977148;28;20039;-55
2024/02/17 01:36:45;;;;;;;33.05;20.90;;;4.30;99.90;;;;;;4977299;28;20041;-51
2024/02/17 01:39:11;;;;;;;30.10;20.77;;;4.20;99.90;;;;;;4976960;28;20038;-52
2024/02/17 01:41:37;;;;;;;31.10;19.75;;;4.00;99.90;;;;;;4977198;28;20065;-55
2024/02/17 01:44:06;;;;;;;35.80;20.58;;;3.90;99.90;;;;;;4976742;28;20027;-53
2024/02/17 01:46:32;;;;;;;31.88;20.88;;;3.90;99.90;;;;;;4959567;28;20446;-54
2024/02/17 01:48:58;;;;;;;32.17;22.13;;;4.00;99.90;;;;;;4976824;28;20030;-54
2024/02/17 01:51:25;;;;;;;29.90;21.08;;;4.50;99.90;;;;;;4977305;28;20030;-49
2024/02/17 01:53:52;;;;;;;36.05;20.90;;;4.80;99.90;;;;;;4979762;28;20129;-55
2024/02/17 01:56:20;;;;;;;32.25;21.65;;;5.10;99.90;;;;;;4996098;28;20053;-53
2024/02/17 01:58:47;;;;;;;35.03;21.73;;;;;;;;;;4996261;28;20038;-54
2024/02/17 02:01:13;;;;;;;31.33;21.55;;;5.50;99.10;;;;;;4996283;28;20030;-56
2024/02/17 02:03:39;;;;;;;35.42;21.50;;;5.50;99.40;;;;;;4946456;28;20041;-53
2024/02/17 02:06:05;;;;;;;32.35;22.33;;;5.60;99.00;;;;;;4995848;28;20030;-52
2024/02/17 02:08:32;;;;;;;34.08;21.95;;;5.60;98.70;;;;;;4978821;28;20081;-52
2024/02/17 02:11:00;;;;;;;31.35;22.42;;;5.70;98.40;;;;;;4995908;28;20076;-53
2024/02/17 02:13:26;;;;;;;30.60;22.70;;;5.80;97.90;;;;;;4962301;28;20073;-55
2024/02/17 02:15:52;;;;;;;32.63;22.42;;;;;;;;;;4995794;28;20077;-53
2024/02/17 02:18:18;;;;;;;33.90;22.17;;;6.10;96.90;;;;;;4961746;28;20097;-50
2024/02/17 02:20:44;;;;;;;32.30;22.65;;;6.10;97.10;;;;;;4995939;28;20387;-52
2024/02/17 02:23:10;;;;;;;31.80;22.45;;;6.10;96.50;;;;;;4961439;28;20037;-52
2024/02/17 02:25:39;;;;;;;33.38;22.75;;;6.00;96.50;;;;;;4995763;28;20041;-55
2024/02/17 02:28:05;;;;;;;30.05;21.73;;;6.00;96.30;;;;;;4995555;28;20037;-52
2024/02/17 02:30:32;;;;;;;33.00;23.42;;;6.00;96.80;;;;;;4935475;29;20036;-52
2024/02/17 02:32:58;;;;;;;32.78;22.00;;;;;;;;;;4904008;29;20047;-54
2024/02/17 02:35:24;;;;;;;32.85;22.35;;;6.40;99.90;;;;;;4935475;29;20147;-50
2024/02/17 02:37:50;;;;;;;35.13;23.02;;;6.20;95.90;;;;;;4935409;29;20492;-50
2024/02/17 02:40:15;;;;;;;38.90;26.25;;;6.10;96.20;;;;;;4935192;29;20042;-52
2024/02/17 02:42:41;;;;;;;35.63;24.13;;;6.10;96.20;;;;;;4936019;29;20063;-50
2024/02/17 02:45:07;;;;;;;33.33;24.20;;;6.20;96.10;;;;;;4935430;29;20556;-53
2024/02/17 02:47:33;;;;;;;38.75;25.65;;;6.20;96.00;;;;;;4935283;29;20058;-53
2024/02/17 02:49:59;;;;;;;36.10;25.38;;;6.20;96.00;;;;;;4935432;29;20084;-51
2024/02/17 02:52:26;;;;;;;38.05;25.80;;;;;;;;;;4936108;29;20058;-54
2024/02/17 02:54:52;;;;;;;36.25;25.10;;;6.20;95.80;;;;;;4904211;29;20055;-54
2024/02/17 02:57:17;;;;;;;34.33;24.83;;;6.30;95.90;;;;;;4935971;29;20373;-56
2024/02/17 02:59:44;;;;;;;36.88;24.98;;;;;;;;;;4919514;29;20087;-53
2024/02/17 03:02:10;;;;;;;37.25;25.55;;;;;;;;;;4966894;28;20038;-51
2024/02/17 03:04:36;;;;;;;34.45;25.15;;;6.20;95.50;;;;;;4974576;28;20039;-54
2024/02/17 03:07:01;;;;;;;39.78;25.95;;;6.20;98.20;;;;;;4975322;28;20055;-53
2024/02/17 03:09:27;;;;;;;40.78;23.83;;;5.80;99.60;;;;;;4957746;28;20035;-50
2024/02/17 03:11:53;;;;;;;34.70;24.88;;;5.30;99.90;;;;;;4975698;28;20368;-56
2024/02/17 03:14:20;;;;;;;32.75;23.55;;;5.10;99.90;;;;;;4975430;28;20033;-53
2024/02/17 03:16:46;;;;;;;34.72;23.50;;;5.30;99.90;;;;;;4975405;28;20468;-49
2024/02/17 03:19:11;;;;;;;33.22;22.33;;;5.10;99.90;;;;;;4975287;28;20081;-53
2024/02/17 03:21:40;;;;;;;34.20;23.35;;;4.80;99.90;;;;;;4975207;28;20482;-52
2024/02/17 03:24:06;;;;;;;35.85;24.27;;;4.80;99.90;;;;;;4975242;28;20058;-56
2024/02/17 03:26:32;;;;;;;34.53;24.00;;;4.90;99.90;;;;;;4936512;28;20045;-51
2024/02/17 03:28:57;;;;;;;37.90;25.58;;;5.10;99.90;;;;;;4974995;28;20117;-50
2024/02/17 03:31:23;;;;;;;39.05;25.17;;;5.00;99.90;;;;;;4975159;28;20031;-51
2024/02/17 03:33:50;;;;;;;45.78;27.85;;;4.70;99.90;;;;;;4963789;28;20492;-54
2024/02/17 03:36:17;;;;;;;41.72;28.38;;;4.60;99.90;;;;;;4955757;28;20035;-55
2024/02/17 03:38:43;;;;;;;43.85;29.50;;;4.70;99.90;;;;;;4955730;28;20109;-53
2024/02/17 03:41:08;;;;;;;47.10;29.85;;;4.80;99.90;;;;;;4955768;28;20451;-55
2024/02/17 03:43:35;;;;;;;41.67;27.77;;;;;;;;;;4951740;28;20038;-54
2024/02/17 03:46:01;;;;;;;40.83;28.27;;;;;;;;;;4974854;28;20042;-55
2024/02/17 03:48:27;;;;;;;38.40;26.60;;;5.00;99.90;;;;;;4974407;28;20026;-56
2024/02/17 03:50:53;;;;;;;35.20;24.38;;;5.30;99.50;;;;;;4956768;28;20486;-56
2024/02/17 03:53:19;;;;;;;32.25;23.52;;;5.50;98.30;;;;;;4973418;28;20037;-52
2024/02/17 03:55:45;;;;;;;32.72;23.58;;;5.60;97.40;;;;;;5012781;28;20073;-52
2024/02/17 03:58:11;;;;;;;37.25;25.83;;;5.50;97.00;;;;;;5014027;28;20050;-54
2024/02/17 04:00:37;;;;;;;33.63;24.02;;;5.40;97.00;;;;;;4979464;28;20030;-49
2024/02/17 04:03:03;;;;;;;32.22;23.05;;;5.40;96.90;;;;;;5013655;28;20030;-50
2024/02/17 04:05:29;;;;;;;35.33;23.02;;;5.30;97.10;;;;;;4963217;28;20382;-56
2024/02/17 04:07:55;;;;;;;35.53;22.20;;;5.30;96.90;;;;;;5013561;28;20092;-49
2024/02/17 04:10:21;;;;;;;34.42;24.73;;;5.30;96.80;;;;;;5013552;28;20084;-53
2024/02/17 04:12:47;;;;;;;36.92;25.55;;;5.30;97.30;;;;;;5013938;28;20018;-53
2024/02/17 04:15:13;;;;;;;36.30;24.83;;;5.30;96.90;;;;;;5013477;28;20026;-54
2024/02/17 04:17:39;;;;;;;34.85;24.70;;;5.30;97.10;;;;;;5013161;28;20034;-56
2024/02/17 04:20:06;;;;;;;36.03;25.55;;;5.30;97.00;;;;;;5013680;28;20398;-57
2024/02/17 04:22:32;;;;;;;34.92;25.40;;;5.40;97.10;;;;;;4963422;28;20069;-52
2024/02/17 04:24:57;;;;;;;39.78;27.05;;;5.30;97.80;;;;;;5013291;28;20073;-54
2024/02/17 04:27:23;;;;;;;37.83;27.52;;;5.40;97.50;;;;;;5013403;28;20034;-54
2024/02/17 04:29:50;;;;;;;36.83;25.15;;;5.50;97.10;;;;;;5013415;28;20501;-52
2024/02/17 04:32:15;;;;;;;36.45;24.20;;;5.60;96.50;;;;;;5013328;28;20026;-53
2024/02/17 04:34:41;;;;;;;36.78;25.52;;;5.50;96.30;;;;;;5013228;28;20097;-54
2024/02/17 04:37:07;;;;;;;52.30;27.98;;;5.50;96.50;;;;;;4991683;28;20030;-52
2024/02/17 04:39:33;;;;;;;39.53;25.02;;;5.60;96.40;;;;;;4991594;28;20042;-51
2024/02/17 04:41:59;;;;;;;48.75;26.08;;;5.50;96.30;;;;;;4991514;28;20050;-52
2024/02/17 04:44:25;;;;;;;42.67;30.77;;;5.40;96.60;;;;;;4991558;28;20088;-51
2024/02/17 04:46:51;;;;;;;43.58;29.50;;;5.40;96.50;;;;;;4991410;28;20126;-52
2024/02/17 04:49:16;;;;;;;40.22;29.08;;;5.40;96.50;;;;;;4959367;28;20034;-51
2024/02/17 04:51:42;;;;;;;39.83;27.63;;;5.40;96.50;;;;;;4991469;28;20038;-52
2024/02/17 04:54:08;;;;;;;41.70;27.90;;;5.30;96.70;;;;;;4991333;28;20091;-53
2024/02/17 04:56:34;;;;;;;38.20;28.33;;;5.40;96.70;;;;;;4975135;28;20165;-52
2024/02/17 04:59:00;;;;;;;45.80;28.27;;;5.40;96.50;;;;;;4958955;28;20490;-56
2024/02/17 05:01:26;;;;;;;41.47;29.98;;;5.40;96.70;;;;;;4959372;28;20415;-54
2024/02/17 05:03:52;;;;;;;42.53;29.50;;;5.50;97.50;;;;;;4991375;28;20089;-55
2024/02/17 05:06:18;;;;;;;41.65;30.00;;;5.40;98.00;;;;;;4991158;28;20102;-53
2024/02/17 05:08:45;;;;;;;41.47;30.08;;;5.30;98.00;;;;;;5007927;28;20045;-54
2024/02/17 05:11:12;;;;;;;43.67;28.38;;;5.10;99.80;;;;;;5013298;28;20025;-52
2024/02/17 05:13:38;;;;;;;46.25;29.20;;;5.30;98.90;;;;;;5013172;28;20229;-54
2024/02/17 05:16:06;;;;;;;37.33;26.80;;;5.40;98.40;;;;;;5013017;28;20054;-52
2024/02/17 05:18:32;;;;;;;38.00;26.98;;;5.30;98.00;;;;;;4978948;28;20088;-56
2024/02/17 05:20:57;;;;;;;38.97;26.65;;;5.40;97.90;;;;;;5012976;28;20030;-53
2024/02/17 05:23:23;;;;;;;36.42;26.55;;;5.20;98.50;;;;;;5013006;28;20482;-51
2024/02/17 05:25:50;;;;;;;40.75;27.15;;;5.10;98.30;;;;;;5012909;28;20076;-56
2024/02/17 05:28:16;;;;;;;48.97;27.45;;;5.00;97.60;;;;;;5013553;28;20030;-52
2024/02/17 05:30:41;;;;;;;39.25;24.95;;;5.00;97.60;;;;;;5016332;28;20033;-54
2024/02/17 05:33:07;;;;;;;31.80;23.35;;;5.10;97.10;;;;;;5016269;28;20052;-51
2024/02/17 05:35:33;;;;;;;30.83;22.17;;;4.90;97.00;;;;;;5016431;28;20095;-52
2024/02/17 05:37:59;;;;;;;34.38;21.90;;;5.00;97.30;;;;;;5016328;28;20036;-57
2024/02/17 05:40:25;;;;;;;34.53;21.00;;;5.10;97.20;;;;;;5016241;28;20033;-58
2024/02/17 05:42:51;;;;;;;41.90;22.17;;;5.20;96.80;;;;;;5016329;28;20037;-54
2024/02/17 05:45:16;;;;;;;34.58;22.42;;;5.10;96.70;;;;;;5015805;28;20057;-52
2024/02/17 05:47:42;;;;;;;44.05;25.48;;;5.20;96.70;;;;;;4998183;28;20410;-50
2024/02/17 05:50:08;;;;;;;36.08;22.10;;;5.20;96.70;;;;;;4965554;28;20041;-52
2024/02/17 05:52:34;;;;;;;38.97;23.55;;;5.20;96.60;;;;;;4965466;28;20053;-55
2024/02/17 05:54:59;;;;;;;42.33;24.45;;;5.20;96.60;;;;;;5015607;28;20100;-56
2024/02/17 05:57:26;;;;;;;44.10;22.98;;;5.30;96.70;;;;;;5015911;28;20030;-58
2024/02/17 05:59:52;;;;;;;42.10;24.33;;;5.30;96.70;;;;;;5015728;28;20085;-52
2024/02/17 06:02:18;;;;;;;42.95;25.90;;;5.30;96.60;;;;;;4983367;28;20045;-57
2024/02/17 06:04:44;;;;;;;53.55;26.02;;;5.30;96.80;;;;;;4978423;28;20426;-52
2024/02/17 06:07:10;;;;;;;56.50;24.13;;;5.30;96.90;;;;;;4981761;28;20026;-50
2024/02/17 06:09:36;;;;;;;48.95;23.52;;;5.30;96.70;;;;;;4995129;28;20037;-53
2024/02/17 06:12:02;;;;;;;43.40;26.13;;;5.30;96.90;;;;;;4995478;28;20018;-50
2024/02/17 06:14:28;;;;;;;43.97;24.00;;;;;;;;;;4954379;29;20466;-52
2024/02/17 06:16:54;;;;;;;49.60;24.95;;;7.50;99.90;;;;;;4922314;29;20591;-49
2024/02/17 06:22:04;;;;;;;56.13;25.50;;;;;;;;;;4953008;29;20064;-55
2024/02/17 06:24:30;;;;;;;40.45;24.17;;;13.40;89.80;;;;;;4953063;29;20031;-56
2024/02/17 06:26:56;;;;;;;39.75;24.05;;;14.90;87.30;;;;;;4954267;29;20054;-53
2024/02/17 06:29:22;;;;;;;47.17;24.98;;;;;;;;;;4954520;29;20476;-53
2024/02/17 06:31:48;;;;;;;38.58;23.73;;;;;;;;;;4954670;29;20046;-54
2024/02/17 06:34:14;;;;;;;48.38;25.10;;;;;;;;;;4954928;29;20042;-51
2024/02/17 06:36:42;;;;;;;49.70;26.42;;;;;;;;;;4916197;29;20063;-54
2024/02/17 06:39:08;;;;;;;38.63;27.83;;;;;;;;;;4915555;29;20489;-53
2024/02/17 06:41:35;;;;;;;55.58;35.70;;;;;;;;;;4915603;29;20162;-51
2024/02/17 06:44:01;;;;;;;66.45;43.08;;;;;;;;;;4914940;29;20063;-53
2024/02/17 06:46:27;;;;;;;42.85;30.10;;;20.30;71.90;;;;;;4915717;29;20048;-54
2024/02/17 06:48:53;;;;;;;35.33;26.35;;;20.30;96.10;;;;;;4915546;29;20050;-51
2024/02/17 06:51:20;;;;;;;30.77;23.50;;;;;;;;;;4920563;29;20067;-55
2024/02/17 06:53:46;;;;;;;36.85;25.77;;;21.10;72.10;;;;;;4932911;29;20048;-51
2024/02/17 06:56:12;;;;;;;28.88;21.35;;;21.10;72.60;;;;;;4909445;29;20043;-49
2024/02/17 06:58:37;;;;;;;25.08;21.63;;;22.20;71.90;;;;;;4921943;29;20055;-54
2024/02/17 07:01:04;;;;;;;30.40;24.33;;;;;;;;;;4922998;29;20535;-52
2024/02/17 07:03:29;;;;;;;41.95;23.83;;;22.90;69.90;;;;;;4900701;29;20134;-54
2024/02/17 07:05:56;;;;;;;28.20;23.13;;;;;;;;;;4924246;29;20172;-56
2024/02/17 07:08:22;;;;;;;31.38;24.63;;;;;;;;;;4914816;29;20046;-54
2024/02/17 07:10:48;;;;;;;32.25;25.23;;;24.70;67.90;;;;;;4938302;29;20045;-50
2024/02/17 07:13:14;;;;;;;34.22;27.92;;;;;;;;;;4955997;29;20106;-53
2024/02/17 07:15:40;;;;;;;37.50;28.95;;;24.10;69.00;;;;;;4956092;29;20117;-52
2024/02/17 07:18:05;;;;;;;30.20;26.55;;;24.10;67.80;;;;;;4966355;28;20054;-51
2024/02/17 07:20:32;;;;;;;31.58;26.05;;;;;;;;;;4925397;28;20039;-52
2024/02/17 07:22:59;;;;;;;32.53;25.67;;;;;;;;;;4974584;28;20054;-52
2024/02/17 07:25:29;;;;;;;30.45;26.35;;;;;;;;;;4972142;28;20049;-50
2024/02/17 07:27:59;;;;;;;33.85;27.45;;;;;;;;;;4970348;28;20023;-52
2024/02/17 07:30:25;;;;;;;41.85;26.40;;;;;;;;;;4972488;28;20150;-52
2024/02/17 07:32:52;;;;;;;41.85;28.45;;;26.00;64.50;;;;;;4954416;28;20062;-52
2024/02/17 07:35:18;;;;;;;36.05;28.35;;;25.80;65.10;;;;;;4912876;28;20039;-50
2024/02/17 07:37:44;;;;;;;35.03;29.13;;;25.90;71.50;;;;;;4955479;28;20051;-47
2024/02/17 07:40:11;;;;;;;33.97;28.10;;;;;;;;;;4960893;28;20043;-50
2024/02/17 07:42:37;;;;;;;37.03;28.52;;;;;;;;;;4952985;29;20050;-50
2024/02/17 07:45:04;;;;;;;37.90;28.88;;;26.50;64.40;;;;;;4953128;29;20130;-49
2024/02/17 07:47:33;;;;;;;48.60;43.28;;;26.10;65.00;;;;;;4953198;29;20043;-50
2024/02/17 07:49:59;;;;;;;38.65;30.35;;;25.80;64.90;;;;;;4953315;29;20034;-49
2024/02/17 07:52:25;;;;;;;34.63;28.50;;;26.30;77.00;;;;;;4952700;28;20089;-49
2024/02/17 07:54:51;;;;;;;35.60;28.60;;;;;;;;;;4949827;28;20128;-47
2024/02/17 07:57:18;;;;;;;34.63;29.35;;;;;;;;;;4908799;29;20035;-49
2024/02/17 07:59:44;;;;;;;38.45;28.35;;;;;;;;;;4945556;29;20220;-49
2024/02/17 08:02:10;;;;;;;33.95;29.08;;;;;;;;;;4921012;29;20499;-50
2024/02/17 08:04:36;;;;;;;32.10;28.70;;;;;;;;;;4920993;29;20043;-49
2024/02/17 08:07:02;;;;;;;38.45;34.13;;;29.30;72.80;;;;;;4948678;29;20551;-49
2024/02/17 08:09:28;;;;;;;40.00;30.80;;;28.80;63.20;;;;;;4924617;28;20038;-51
2024/02/17 08:11:54;;;;;;;39.38;32.58;;;27.50;63.40;;;;;;4973716;28;20502;-48
2024/02/17 08:14:20;;;;;;;36.85;30.95;;;27.80;64.00;;;;;;4973023;28;20170;-48
2024/02/17 08:16:48;;;;;;;40.17;32.22;;;;;;;;;;4973639;28;20457;-51
2024/02/17 08:19:14;;;;;;;37.42;31.05;;;;;;;;;;4968128;28;20162;-47
2024/02/17 08:21:40;;;;;;;36.80;29.33;;;;;;;;;;4964202;28;20502;-46
2024/02/17 08:24:06;;;;;;;41.80;32.30;;;;;;;;;;4961186;28;20494;-47
2024/02/17 08:26:35;;;;;;;37.22;30.52;;;;;;;;;;4969891;28;20534;-48
2024/02/17 08:29:01;;;;;;;46.03;31.33;;;27.60;63.50;;;;;;4939567;28;20035;-54
2024/02/17 08:31:27;;;;;;;38.55;31.75;;;27.10;64.20;;;;;;4973662;28;20498;-48
2024/02/17 08:33:52;;;;;;;34.97;29.70;;;27.00;66.40;;;;;;4973979;28;20066;-52
2024/02/17 08:36:19;;;;;;;60.58;33.58;;;;;;;;;;4973974;28;20081;-53
2024/02/17 08:38:45;;;;;;;36.38;32.10;;;27.50;85.40;;;;;;4966183;28;20066;-50
2024/02/17 08:41:11;;;;;;;39.35;32.20;;;27.20;67.00;;;;;;4970874;28;20026;-48
2024/02/17 08:43:37;;;;;;;35.67;31.60;;;;;;;;;;4937454;28;20081;-51
2024/02/17 08:46:03;;;;;;;42.25;33.08;;;26.90;69.00;;;;;;4973182;28;20038;-54
2024/02/17 08:48:30;;;;;;;36.05;30.00;;;;;;;;;;4972973;28;20030;-53
2024/02/17 08:50:56;;;;;;;36.22;30.92;;;;;;;;;;4973037;28;20019;-51
2024/02/17 08:53:22;;;;;;;33.65;29.92;;;27.20;64.20;;;;;;4973333;28;20027;-51
2024/02/17 08:55:48;;;;;;;38.38;30.85;;;27.20;64.60;;;;;;4992591;28;20101;-53
2024/02/17 08:58:13;;;;;;;36.88;32.15;;;26.80;64.30;;;;;;4942496;28;20034;-56
2024/02/17 09:00:39;;;;;;;37.55;31.60;;;26.90;64.70;;;;;;4992846;28;20038;-55
2024/02/17 09:03:05;;;;;;;37.97;32.30;;;26.70;64.50;;;;;;4992388;28;20061;-52
2024/02/17 09:05:31;;;;;;;34.78;29.60;;;;;;;;;;4897112;28;20042;-54
2024/02/17 09:07:57;;;;;;;36.60;32.13;;;26.70;67.50;;;;;;4996357;28;20026;-52
2024/02/17 09:10:23;;;;;;;38.60;29.40;;;27.10;64.90;;;;;;4944250;28;20109;-53
2024/02/17 09:12:51;;;;;;;33.45;29.50;;;26.60;64.30;;;;;;4962254;28;20117;-49
2024/02/17 09:15:17;;;;;;;38.00;29.52;;;26.80;64.40;;;;;;4925502;29;20466;-51
2024/02/17 09:17:42;;;;;;;34.42;29.88;;;26.90;64.30;;;;;;4953891;29;20078;-49
2024/02/17 09:20:09;;;;;;;32.47;29.02;;;26.60;64.40;;;;;;4945035;29;20035;-54
2024/02/17 09:22:35;;;;;;;25.90;20.90;;;26.60;64.70;;;;;;4925907;29;20142;-52
2024/02/17 09:25:01;;;;;;;29.80;24.65;;;;;;;;;;4933833;29;20181;-50
2024/02/17 09:27:27;;;;;;;29.13;24.88;;;;;;;;;;4950332;29;20036;-53
2024/02/17 09:29:53;;;;;;;29.25;22.83;;;;;;;;;;4943452;29;20047;-53
2024/02/17 09:32:19;;;;;;;27.15;23.48;;;;;;;;;;4951260;29;20031;-52
2024/02/17 09:34:45;;;;;;;31.25;26.15;;;;;;;;;;4955904;29;20031;-54
2024/02/17 09:37:11;;;;;;;28.58;23.88;;;27.50;63.40;;;;;;4939845;29;20122;-50
2024/02/17 09:39:40;;;;;;;29.30;23.80;;;;;;;;;;4955770;29;20066;-54
2024/02/17 09:42:07;;;;;;;29.02;24.65;;;;;;;;;;4955640;29;20110;-47
2024/02/17 09:44:33;;;;;;;27.48;23.45;;;;;;;;;;4955781;29;20031;-52
2024/02/17 09:46:59;;;;;;;30.90;23.58;;;;;;;;;;4988143;28;20039;-50
2024/02/17 09:49:26;;;;;;;32.63;24.00;;;;;;;;;;4996709;28;20076;-54
2024/02/17 09:51:53;;;;;;;30.08;23.02;;;26.90;65.70;;;;;;4996309;28;20577;-52
2024/02/17 09:54:22;;;;;;;30.67;23.77;;;;;;;;;;4995838;28;20058;-48
2024/02/17 09:56:50;;;;;;;30.08;23.67;;;;;;;;;;4996190;28;20035;-53
2024/02/17 09:59:15;;;;;;;27.42;23.08;;;26.80;62.80;;;;;;4996141;28;20498;-48
2024/02/17 10:01:41;;;;;;;28.60;23.48;;;27.10;63.50;;;;;;4996194;28;20057;-51
2024/02/17 10:04:07;;;;;;;26.65;21.95;;;27.70;63.40;;;;;;4995960;28;20030;-49
2024/02/17 10:06:34;;;;;;;28.02;24.88;;;;;;;;;;4996089;28;20125;-52
2024/02/17 10:09:01;;;;;;;26.60;22.38;;;;;;;;;;4995917;28;20605;-52
2024/02/17 10:11:28;;;;;;;28.00;23.15;;;;;;;;;;4995739;28;20390;-49
2024/02/17 10:14:04;;;;;;;354.65;209.15;;;24.70;63.50;;;;;;4960857;28;20049;-55
2024/02/17 10:16:32;;;;;;;129.35;85.38;;;24.70;65.50;;;;;;4994086;28;20057;-53
2024/02/17 10:18:59;;;;;;;32.55;26.90;;;24.00;65.40;;;;;;4994721;28;20610;-51
2024/02/17 10:21:25;;;;;;;31.50;27.85;;;24.20;65.80;;;;;;4994777;28;20041;-50
2024/02/17 10:23:51;;;;;;;35.40;31.15;;;24.80;65.60;;;;;;4994224;28;20022;-53
2024/02/17 10:26:17;;;;;;;47.53;39.55;;;24.80;65.30;;;;;;4994600;28;20049;-50
2024/02/17 10:28:52;;;;;;;199.43;117.47;;;25.10;65.50;;;;;;4994757;28;20121;-53
2024/02/17 10:31:18;;;;;;;275.02;169.95;;;25.10;65.00;;;;;;4948575;28;20069;-54
2024/02/17 10:33:43;;;;;;;30.13;23.65;;;24.50;65.40;;;;;;4995682;28;20034;-50
2024/02/17 10:36:12;;;;;;;43.50;32.53;;;25.00;65.80;;;;;;4995493;28;20093;-49
2024/02/17 10:38:40;;;;;;;29.92;23.40;;;25.30;65.80;;;;;;4994690;28;20493;-53
2024/02/17 10:41:06;;;;;;;32.80;24.83;;;26.10;65.90;;;;;;4994847;28;20389;-53
2024/02/17 10:43:36;;;;;;;84.70;53.45;;;;;;;;;;4995005;28;20034;-52
2024/02/17 10:46:26;;;;;;;47.97;32.20;;;25.10;64.10;;;;;;4995281;28;20474;-50
2024/02/17 10:48:59;;;;;;;33.85;26.92;;;25.10;65.70;;;;;;4994491;28;20043;-49
2024/02/17 10:51:25;;;;;;;33.22;25.75;;;;;;;;;;4995101;28;20038;-52
2024/02/17 10:53:59;;;;;;;27.92;22.13;;;26.20;96.20;;;;;;4995027;28;20133;-51
2024/02/17 10:56:25;;;;;;;39.47;26.38;;;27.10;67.60;;;;;;4995101;28;20034;-48
2024/02/17 10:58:55;;;;;;;41.53;28.17;;;25.80;83.40;;;;;;4995165;28;20053;-52
2024/02/17 11:01:26;;;;;;;85.70;38.67;;;;;;;;;;4961027;28;20555;-49
2024/02/17 11:03:55;;;;;;;28.20;18.52;;;26.50;65.50;;;;;;4971145;28;20466;-51
2024/02/17 11:06:22;;;;;;;56.63;38.25;;;26.80;64.90;;;;;;4985215;28;20043;-50
2024/02/17 11:08:48;;;;;;;27.23;20.58;;;25.40;64.30;;;;;;4992371;28;20113;-49
2024/02/17 11:11:31;;;;;;;47.00;32.42;;;26.50;65.40;;;;;;4981558;28;20030;-45
2024/02/17 11:13:59;;;;;;;23.88;18.75;;;26.10;65.80;;;;;;4986798;28;20034;-47
2024/02/17 11:16:25;;;;;;;31.33;23.17;;;;;;;;;;4950282;28;20050;-49
2024/02/17 11:18:54;;;;;;;25.08;19.83;;;;;;;;;;4983985;28;20019;-51
2024/02/17 11:21:37;;;;;;;25.83;20.27;;;26.20;65.50;;;;;;4991886;28;20033;-46
2024/02/17 11:24:10;;;;;;;65.10;22.75;;;26.30;66.20;;;;;;4982682;28;20057;-46
2024/02/17 11:26:36;;;;;;;33.90;18.67;;;;;;;;;;4981028;28;20375;-47
2024/02/17 11:29:02;;;;;;;45.38;18.45;;;;;;;;;;4990633;28;20030;-48
2024/02/17 11:31:30;;;;;;;40.20;25.27;;;24.70;64.40;;;;;;4978265;28;20165;-46
2024/02/17 11:34:03;;;;;;;70.40;39.17;;;25.20;71.10;;;;;;4987269;28;20030;-49
2024/02/17 11:36:33;;;;;;;45.58;26.52;;;24.60;65.00;;;;;;4986045;28;20069;-47
2024/02/17 11:39:00;;;;;;;58.22;26.58;;;24.00;66.20;;;;;;4978893;28;20033;-47
2024/02/17 11:41:30;;;;;;;97.30;23.10;;;23.90;66.20;;;;;;4990668;28;20109;-51
2024/02/17 11:43:57;;;;;;;31.23;22.97;;;23.40;66.10;;;;;;4981291;28;20129;-49
2024/02/17 11:46:23;;;;;;;25.38;16.17;;;;;;;;;;4993947;28;20047;-46
2024/02/17 11:48:49;;;;;;;84.00;24.10;;;24.50;65.80;;;;;;4959898;28;20038;-46
2024/02/17 11:51:20;;;;;;;20.67;16.63;;;23.90;66.00;;;;;;4977769;28;20121;-48
2024/02/17 11:53:46;;;;;;;26.20;16.10;;;24.80;66.30;;;;;;4992386;28;20104;-46
2024/02/17 11:56:13;;;;;;;24.23;15.52;;;24.90;66.40;;;;;;4993619;28;20026;-45
2024/02/17 11:58:39;;;;;;;38.80;18.63;;;25.10;65.90;;;;;;4947115;28;20039;-47
2024/02/17 12:01:05;;;;;;;27.40;19.55;;;24.10;65.60;;;;;;4990540;28;20113;-45
2024/02/17 12:03:31;;;;;;;24.33;18.15;;;24.80;66.50;;;;;;4928412;28;20030;-46
2024/02/17 12:06:01;;;;;;;51.65;38.13;;;24.80;66.10;;;;;;4992981;28;20034;-49
2024/02/17 12:08:28;;;;;;;63.10;18.05;;;;;;;;;;4993689;28;20080;-45
2024/02/17 12:10:55;;;;;;;26.55;17.92;;;25.40;96.00;;;;;;4993747;28;20161;-45
2024/02/17 12:13:21;;;;;;;43.65;32.22;;;25.20;65.00;;;;;;4977462;28;20029;-47
2024/02/17 12:15:47;;;;;;;27.23;19.42;;;24.40;65.40;;;;;;4987842;28;20518;-48
2024/02/17 12:18:12;;;;;;;43.10;26.92;;;24.00;66.20;;;;;;4987386;28;20026;-48
2024/02/17 12:20:38;;;;;;;28.55;18.02;;;24.60;66.80;;;;;;4993559;28;20117;-49
2024/02/17 12:23:05;;;;;;;23.67;17.08;;;24.30;66.40;;;;;;4960208;28;20034;-48
2024/02/17 12:25:35;;;;;;;17.50;13.73;;;24.20;66.60;;;;;;4940817;28;20050;-50
2024/02/17 12:28:01;;;;;;;16.48;11.82;;;24.30;66.50;;;;;;4981683;28;20026;-54
2024/02/17 12:30:27;;;;;;;18.88;12.43;;;24.20;66.00;;;;;;4993434;28;20058;-48
2024/02/17 12:33:06;;;;;;;23.52;14.95;;;24.40;66.50;;;;;;4978561;28;20489;-51
2024/02/17 12:35:34;;;;;;;33.65;14.48;;;24.30;66.60;;;;;;4977833;28;20026;-46
2024/02/17 12:37:59;;;;;;;31.02;17.17;;;24.00;66.10;;;;;;4994814;28;20398;-51
2024/02/17 12:40:25;;;;;;;80.38;21.48;;;23.50;66.70;;;;;;4997219;28;20022;-52
2024/02/17 12:42:53;;;;;;;225.00;32.10;;;23.00;67.30;;;;;;4997381;28;20118;-50
2024/02/17 12:45:27;;;;;;;50.03;16.98;;;22.30;68.00;;;;;;4963007;28;20046;-43
2024/02/17 12:47:53;;;;;;;26.80;17.27;;;;;;;;;;4956415;28;20038;-51
2024/02/17 12:50:19;;;;;;;16.40;12.48;;;;;;;;;;4959187;28;20056;-48
2024/02/17 12:52:46;;;;;;;15.23;11.25;;;21.90;82.60;;;;;;4979678;28;20027;-50
2024/02/17 12:55:14;;;;;;;17.30;13.80;;;22.70;83.50;;;;;;4995693;28;20121;-46